sensor_id;sensor_type;location;lat;lon;timestamp;P1;durP1;ratioP1;P2;durP2;ratioP2
29812;SDS011;16707;48.106;11.548;2022-11-27T00:01:38;14.02;;;8.75;;
29812;SDS011;16707;48.106;11.548;2022-11-27T00:04:06;10.52;;;7.97;;
29812;SDS011;16707;48.106;11.548;2022-11-27T00:06:34;12.05;;;7.35;;
29812;SDS011;16707;48.106;11.548;2022-11-27T00:09:02;11.35;;;7.85;;
29812;SDS011;16707;48.106;11.548;2022-11-27T00:11:32;13.02;;;7.88;;
29812;SDS011;16707;48.106;11.548;2022-11-27T00:13:59;12.55;;;8.10;;
29812;SDS011;16707;48.106;11.548;2022-11-27T00:16:26;10.52;;;7.50;;
29812;SDS011;16707;48.106;11.548;2022-11-27T00:18:53;11.38;;;7.53;;
29812;SDS011;16707;48.106;11.548;2022-11-27T00:21:21;10.93;;;7.30;;
29812;SDS011;16707;48.106;11.548;2022-11-27T00:23:51;9.70;;;7.63;;
29812;SDS011;16707;48.106;11.548;2022-11-27T00:26:19;9.90;;;7.18;;
29812;SDS011;16707;48.106;11.548;2022-11-27T00:28:47;10.73;;;7.90;;
29812;SDS011;16707;48.106;11.548;2022-11-27T00:31:16;11.40;;;7.25;;
29812;SDS011;16707;48.106;11.548;2022-11-27T00:33:44;12.07;;;7.93;;
29812;SDS011;16707;48.106;11.548;2022-11-27T00:36:12;11.00;;;7.65;;
29812;SDS011;16707;48.106;11.548;2022-11-27T00:38:39;9.38;;;6.82;;
29812;SDS011;16707;48.106;11.548;2022-11-27T00:41:07;13.02;;;6.95;;
29812;SDS011;16707;48.106;11.548;2022-11-27T00:43:35;8.63;;;6.93;;
29812;SDS011;16707;48.106;11.548;2022-11-27T00:46:05;11.27;;;7.70;;
29812;SDS011;16707;48.106;11.548;2022-11-27T00:48:32;10.55;;;6.75;;
29812;SDS011;16707;48.106;11.548;2022-11-27T00:51:00;10.70;;;7.20;;
29812;SDS011;16707;48.106;11.548;2022-11-27T00:53:29;10.32;;;7.32;;
29812;SDS011;16707;48.106;11.548;2022-11-27T00:56:00;9.07;;;6.68;;
29812;SDS011;16707;48.106;11.548;2022-11-27T00:58:27;8.60;;;6.22;;
29812;SDS011;16707;48.106;11.548;2022-11-27T01:00:54;10.52;;;7.20;;
29812;SDS011;16707;48.106;11.548;2022-11-27T01:03:24;13.13;;;7.03;;
29812;SDS011;16707;48.106;11.548;2022-11-27T01:05:52;10.52;;;7.07;;
29812;SDS011;16707;48.106;11.548;2022-11-27T01:08:19;10.05;;;7.07;;
29812;SDS011;16707;48.106;11.548;2022-11-27T01:10:49;12.27;;;7.93;;
29812;SDS011;16707;48.106;11.548;2022-11-27T01:13:17;10.35;;;7.05;;
29812;SDS011;16707;48.106;11.548;2022-11-27T01:15:44;10.15;;;6.88;;
29812;SDS011;16707;48.106;11.548;2022-11-27T01:18:11;8.80;;;6.75;;
29812;SDS011;16707;48.106;11.548;2022-11-27T01:20:40;9.25;;;6.72;;
29812;SDS011;16707;48.106;11.548;2022-11-27T01:23:06;10.25;;;7.03;;
29812;SDS011;16707;48.106;11.548;2022-11-27T01:25:33;9.82;;;7.25;;
29812;SDS011;16707;48.106;11.548;2022-11-27T01:28:00;9.73;;;6.65;;
29812;SDS011;16707;48.106;11.548;2022-11-27T01:30:27;9.38;;;6.97;;
29812;SDS011;16707;48.106;11.548;2022-11-27T01:32:57;9.25;;;6.63;;
29812;SDS011;16707;48.106;11.548;2022-11-27T01:35:27;9.23;;;6.25;;
29812;SDS011;16707;48.106;11.548;2022-11-27T01:37:55;8.63;;;6.03;;
29812;SDS011;16707;48.106;11.548;2022-11-27T01:40:22;10.27;;;6.72;;
29812;SDS011;16707;48.106;11.548;2022-11-27T01:42:49;9.40;;;6.95;;
29812;SDS011;16707;48.106;11.548;2022-11-27T01:45:17;9.40;;;6.75;;
29812;SDS011;16707;48.106;11.548;2022-11-27T01:47:45;8.43;;;6.07;;
29812;SDS011;16707;48.106;11.548;2022-11-27T01:50:16;10.40;;;6.30;;
29812;SDS011;16707;48.106;11.548;2022-11-27T01:52:47;10.55;;;6.53;;
29812;SDS011;16707;48.106;11.548;2022-11-27T01:55:20;7.28;;;5.68;;
29812;SDS011;16707;48.106;11.548;2022-11-27T01:57:54;10.35;;;6.80;;
29812;SDS011;16707;48.106;11.548;2022-11-27T02:00:26;10.00;;;6.82;;
29812;SDS011;16707;48.106;11.548;2022-11-27T02:02:54;10.43;;;6.80;;
29812;SDS011;16707;48.106;11.548;2022-11-27T02:05:23;10.00;;;6.68;;
29812;SDS011;16707;48.106;11.548;2022-11-27T02:07:52;10.55;;;6.70;;
29812;SDS011;16707;48.106;11.548;2022-11-27T02:10:25;10.25;;;7.30;;
29812;SDS011;16707;48.106;11.548;2022-11-27T02:13:04;8.88;;;5.70;;
29812;SDS011;16707;48.106;11.548;2022-11-27T02:15:45;8.13;;;6.38;;
29812;SDS011;16707;48.106;11.548;2022-11-27T02:18:29;10.02;;;6.25;;
29812;SDS011;16707;48.106;11.548;2022-11-27T02:21:08;9.50;;;6.55;;
29812;SDS011;16707;48.106;11.548;2022-11-27T02:26:57;9.75;;;5.90;;
29812;SDS011;16707;48.106;11.548;2022-11-27T02:29:54;10.10;;;6.10;;
29812;SDS011;16707;48.106;11.548;2022-11-27T02:32:30;9.77;;;6.13;;
29812;SDS011;16707;48.106;11.548;2022-11-27T02:35:06;10.93;;;6.40;;
29812;SDS011;16707;48.106;11.548;2022-11-27T02:37:42;8.55;;;6.28;;
29812;SDS011;16707;48.106;11.548;2022-11-27T02:40:20;8.43;;;5.57;;
29812;SDS011;16707;48.106;11.548;2022-11-27T02:42:56;8.73;;;5.30;;
29812;SDS011;16707;48.106;11.548;2022-11-27T02:45:32;7.60;;;5.03;;
29812;SDS011;16707;48.106;11.548;2022-11-27T02:48:02;9.55;;;5.70;;
29812;SDS011;16707;48.106;11.548;2022-11-27T02:50:30;7.82;;;5.80;;
29812;SDS011;16707;48.106;11.548;2022-11-27T02:53:03;8.38;;;5.50;;
29812;SDS011;16707;48.106;11.548;2022-11-27T02:55:33;9.40;;;5.22;;
29812;SDS011;16707;48.106;11.548;2022-11-27T02:58:12;7.90;;;5.60;;
29812;SDS011;16707;48.106;11.548;2022-11-27T03:00:43;7.25;;;5.72;;
29812;SDS011;16707;48.106;11.548;2022-11-27T03:03:12;8.15;;;5.75;;
29812;SDS011;16707;48.106;11.548;2022-11-27T03:05:44;8.13;;;5.32;;
29812;SDS011;16707;48.106;11.548;2022-11-27T03:08:16;7.57;;;5.47;;
29812;SDS011;16707;48.106;11.548;2022-11-27T03:10:50;7.07;;;4.85;;
29812;SDS011;16707;48.106;11.548;2022-11-27T03:13:22;5.70;;;4.22;;
29812;SDS011;16707;48.106;11.548;2022-11-27T03:16:03;8.20;;;5.38;;
29812;SDS011;16707;48.106;11.548;2022-11-27T03:18:36;5.43;;;4.35;;
29812;SDS011;16707;48.106;11.548;2022-11-27T03:21:11;6.38;;;4.70;;
29812;SDS011;16707;48.106;11.548;2022-11-27T03:26:19;6.78;;;4.65;;
29812;SDS011;16707;48.106;11.548;2022-11-27T03:28:51;6.40;;;4.63;;
29812;SDS011;16707;48.106;11.548;2022-11-27T03:31:34;6.63;;;4.65;;
29812;SDS011;16707;48.106;11.548;2022-11-27T03:34:06;7.70;;;5.13;;
29812;SDS011;16707;48.106;11.548;2022-11-27T03:36:42;8.15;;;5.18;;
29812;SDS011;16707;48.106;11.548;2022-11-27T03:39:16;7.50;;;5.57;;
29812;SDS011;16707;48.106;11.548;2022-11-27T03:41:49;6.13;;;4.80;;
29812;SDS011;16707;48.106;11.548;2022-11-27T03:44:22;7.20;;;4.72;;
29812;SDS011;16707;48.106;11.548;2022-11-27T03:46:59;7.60;;;5.35;;
29812;SDS011;16707;48.106;11.548;2022-11-27T03:49:34;6.63;;;4.93;;
29812;SDS011;16707;48.106;11.548;2022-11-27T03:52:13;8.23;;;4.85;;
29812;SDS011;16707;48.106;11.548;2022-11-27T03:54:50;6.95;;;4.80;;
29812;SDS011;16707;48.106;11.548;2022-11-27T03:57:26;8.00;;;4.57;;
29812;SDS011;16707;48.106;11.548;2022-11-27T03:59:56;9.00;;;5.10;;
29812;SDS011;16707;48.106;11.548;2022-11-27T04:02:29;4.97;;;4.03;;
29812;SDS011;16707;48.106;11.548;2022-11-27T04:05:05;6.85;;;4.28;;
29812;SDS011;16707;48.106;11.548;2022-11-27T04:07:32;5.53;;;3.92;;
29812;SDS011;16707;48.106;11.548;2022-11-27T04:09:59;5.45;;;3.90;;
29812;SDS011;16707;48.106;11.548;2022-11-27T04:12:26;6.13;;;3.80;;
29812;SDS011;16707;48.106;11.548;2022-11-27T04:14:56;5.32;;;3.88;;
29812;SDS011;16707;48.106;11.548;2022-11-27T04:17:35;5.88;;;3.78;;
29812;SDS011;16707;48.106;11.548;2022-11-27T04:20:05;5.13;;;3.75;;
29812;SDS011;16707;48.106;11.548;2022-11-27T04:22:42;5.00;;;3.60;;
29812;SDS011;16707;48.106;11.548;2022-11-27T04:25:12;6.47;;;3.67;;
29812;SDS011;16707;48.106;11.548;2022-11-27T04:27:50;6.80;;;3.95;;
29812;SDS011;16707;48.106;11.548;2022-11-27T04:30:23;4.63;;;3.45;;
29812;SDS011;16707;48.106;11.548;2022-11-27T04:32:57;5.10;;;3.58;;
29812;SDS011;16707;48.106;11.548;2022-11-27T04:35:38;5.82;;;3.70;;
29812;SDS011;16707;48.106;11.548;2022-11-27T04:38:12;5.97;;;3.50;;
29812;SDS011;16707;48.106;11.548;2022-11-27T04:40:49;6.05;;;4.03;;
29812;SDS011;16707;48.106;11.548;2022-11-27T04:43:19;5.47;;;3.60;;
29812;SDS011;16707;48.106;11.548;2022-11-27T04:45:49;5.47;;;3.80;;
29812;SDS011;16707;48.106;11.548;2022-11-27T04:48:24;7.15;;;3.80;;
29812;SDS011;16707;48.106;11.548;2022-11-27T04:50:53;7.00;;;3.90;;
29812;SDS011;16707;48.106;11.548;2022-11-27T04:53:21;6.93;;;3.63;;
29812;SDS011;16707;48.106;11.548;2022-11-27T04:55:49;4.85;;;3.47;;
29812;SDS011;16707;48.106;11.548;2022-11-27T04:58:16;5.10;;;3.67;;
29812;SDS011;16707;48.106;11.548;2022-11-27T05:00:43;5.05;;;3.63;;
29812;SDS011;16707;48.106;11.548;2022-11-27T05:03:10;4.40;;;3.10;;
29812;SDS011;16707;48.106;11.548;2022-11-27T05:05:38;4.72;;;3.60;;
29812;SDS011;16707;48.106;11.548;2022-11-27T05:08:10;4.47;;;3.70;;
29812;SDS011;16707;48.106;11.548;2022-11-27T05:10:43;4.03;;;3.47;;
29812;SDS011;16707;48.106;11.548;2022-11-27T05:13:10;6.55;;;3.60;;
29812;SDS011;16707;48.106;11.548;2022-11-27T05:15:40;6.35;;;3.58;;
29812;SDS011;16707;48.106;11.548;2022-11-27T05:18:07;5.28;;;3.70;;
29812;SDS011;16707;48.106;11.548;2022-11-27T05:20:34;4.63;;;3.60;;
29812;SDS011;16707;48.106;11.548;2022-11-27T05:23:02;4.97;;;3.35;;
29812;SDS011;16707;48.106;11.548;2022-11-27T05:25:29;4.60;;;3.50;;
29812;SDS011;16707;48.106;11.548;2022-11-27T05:28:00;5.53;;;3.70;;
29812;SDS011;16707;48.106;11.548;2022-11-27T05:30:33;4.95;;;3.40;;
29812;SDS011;16707;48.106;11.548;2022-11-27T05:33:03;6.20;;;3.53;;
29812;SDS011;16707;48.106;11.548;2022-11-27T05:35:30;4.38;;;3.30;;
29812;SDS011;16707;48.106;11.548;2022-11-27T05:37:57;6.25;;;3.72;;
29812;SDS011;16707;48.106;11.548;2022-11-27T05:40:25;4.57;;;3.25;;
29812;SDS011;16707;48.106;11.548;2022-11-27T05:42:52;4.85;;;3.65;;
29812;SDS011;16707;48.106;11.548;2022-11-27T05:45:21;5.20;;;3.30;;
29812;SDS011;16707;48.106;11.548;2022-11-27T05:47:48;4.82;;;3.47;;
29812;SDS011;16707;48.106;11.548;2022-11-27T05:50:18;3.95;;;3.33;;
29812;SDS011;16707;48.106;11.548;2022-11-27T05:52:48;5.20;;;3.17;;
29812;SDS011;16707;48.106;11.548;2022-11-27T05:55:15;4.63;;;3.13;;
29812;SDS011;16707;48.106;11.548;2022-11-27T05:57:44;5.50;;;3.80;;
29812;SDS011;16707;48.106;11.548;2022-11-27T06:00:11;5.10;;;3.60;;
29812;SDS011;16707;48.106;11.548;2022-11-27T06:02:41;5.97;;;3.65;;
29812;SDS011;16707;48.106;11.548;2022-11-27T06:05:11;5.15;;;3.55;;
29812;SDS011;16707;48.106;11.548;2022-11-27T06:07:38;5.93;;;3.30;;
29812;SDS011;16707;48.106;11.548;2022-11-27T06:10:14;7.43;;;3.65;;
29812;SDS011;16707;48.106;11.548;2022-11-27T06:12:46;4.60;;;3.40;;
29812;SDS011;16707;48.106;11.548;2022-11-27T06:15:14;5.40;;;3.90;;
29812;SDS011;16707;48.106;11.548;2022-11-27T06:17:41;4.72;;;4.00;;
29812;SDS011;16707;48.106;11.548;2022-11-27T06:20:08;4.93;;;3.70;;
29812;SDS011;16707;48.106;11.548;2022-11-27T06:22:35;6.07;;;3.65;;
29812;SDS011;16707;48.106;11.548;2022-11-27T06:25:02;6.88;;;3.42;;
29812;SDS011;16707;48.106;11.548;2022-11-27T06:27:31;5.47;;;3.72;;
29812;SDS011;16707;48.106;11.548;2022-11-27T06:30:10;5.82;;;3.53;;
29812;SDS011;16707;48.106;11.548;2022-11-27T06:32:47;4.20;;;2.85;;
29812;SDS011;16707;48.106;11.548;2022-11-27T06:35:19;4.50;;;3.25;;
29812;SDS011;16707;48.106;11.548;2022-11-27T06:37:52;5.82;;;4.05;;
29812;SDS011;16707;48.106;11.548;2022-11-27T06:40:19;4.65;;;3.30;;
29812;SDS011;16707;48.106;11.548;2022-11-27T06:42:46;4.95;;;3.03;;
29812;SDS011;16707;48.106;11.548;2022-11-27T06:45:14;4.57;;;3.47;;
29812;SDS011;16707;48.106;11.548;2022-11-27T06:47:41;4.65;;;3.00;;
29812;SDS011;16707;48.106;11.548;2022-11-27T06:50:10;5.18;;;3.30;;
29812;SDS011;16707;48.106;11.548;2022-11-27T06:52:37;5.43;;;3.15;;
29812;SDS011;16707;48.106;11.548;2022-11-27T06:55:04;5.55;;;3.85;;
29812;SDS011;16707;48.106;11.548;2022-11-27T06:57:34;5.63;;;3.22;;
29812;SDS011;16707;48.106;11.548;2022-11-27T07:00:05;6.00;;;3.35;;
29812;SDS011;16707;48.106;11.548;2022-11-27T07:02:34;4.93;;;3.30;;
29812;SDS011;16707;48.106;11.548;2022-11-27T07:05:01;3.80;;;3.08;;
29812;SDS011;16707;48.106;11.548;2022-11-27T07:07:30;6.00;;;3.33;;
29812;SDS011;16707;48.106;11.548;2022-11-27T07:10:03;4.78;;;3.30;;
29812;SDS011;16707;48.106;11.548;2022-11-27T07:12:31;6.95;;;3.00;;
29812;SDS011;16707;48.106;11.548;2022-11-27T07:14:58;5.63;;;3.30;;
29812;SDS011;16707;48.106;11.548;2022-11-27T07:17:25;5.85;;;3.28;;
29812;SDS011;16707;48.106;11.548;2022-11-27T07:19:53;5.25;;;3.00;;
29812;SDS011;16707;48.106;11.548;2022-11-27T07:22:20;4.07;;;2.88;;
29812;SDS011;16707;48.106;11.548;2022-11-27T07:24:47;5.13;;;2.85;;
29812;SDS011;16707;48.106;11.548;2022-11-27T07:27:14;6.38;;;3.28;;
29812;SDS011;16707;48.106;11.548;2022-11-27T07:29:42;3.83;;;3.10;;
29812;SDS011;16707;48.106;11.548;2022-11-27T07:32:13;6.35;;;3.35;;
29812;SDS011;16707;48.106;11.548;2022-11-27T07:34:40;4.07;;;3.28;;
29812;SDS011;16707;48.106;11.548;2022-11-27T07:37:08;4.95;;;3.58;;
29812;SDS011;16707;48.106;11.548;2022-11-27T07:39:35;6.03;;;4.15;;
29812;SDS011;16707;48.106;11.548;2022-11-27T07:42:08;5.50;;;3.42;;
29812;SDS011;16707;48.106;11.548;2022-11-27T07:44:35;5.28;;;3.25;;
29812;SDS011;16707;48.106;11.548;2022-11-27T07:47:02;5.95;;;3.95;;
29812;SDS011;16707;48.106;11.548;2022-11-27T07:49:29;5.40;;;4.18;;
29812;SDS011;16707;48.106;11.548;2022-11-27T07:51:56;6.72;;;4.18;;
29812;SDS011;16707;48.106;11.548;2022-11-27T07:54:24;4.22;;;3.80;;
29812;SDS011;16707;48.106;11.548;2022-11-27T07:56:51;7.13;;;4.22;;
29812;SDS011;16707;48.106;11.548;2022-11-27T07:59:18;6.60;;;4.63;;
29812;SDS011;16707;48.106;11.548;2022-11-27T08:01:45;8.38;;;4.60;;
29812;SDS011;16707;48.106;11.548;2022-11-27T08:04:12;5.55;;;4.53;;
29812;SDS011;16707;48.106;11.548;2022-11-27T08:06:39;7.07;;;4.55;;
29812;SDS011;16707;48.106;11.548;2022-11-27T08:09:12;6.88;;;5.20;;
29812;SDS011;16707;48.106;11.548;2022-11-27T08:11:44;8.10;;;5.55;;
29812;SDS011;16707;48.106;11.548;2022-11-27T08:14:11;7.57;;;5.38;;
29812;SDS011;16707;48.106;11.548;2022-11-27T08:16:43;8.82;;;6.30;;
29812;SDS011;16707;48.106;11.548;2022-11-27T08:19:10;8.93;;;5.88;;
29812;SDS011;16707;48.106;11.548;2022-11-27T08:21:43;7.65;;;5.50;;
29812;SDS011;16707;48.106;11.548;2022-11-27T08:24:09;8.77;;;5.72;;
29812;SDS011;16707;48.106;11.548;2022-11-27T08:26:36;8.98;;;6.28;;
29812;SDS011;16707;48.106;11.548;2022-11-27T08:29:06;7.05;;;5.30;;
29812;SDS011;16707;48.106;11.548;2022-11-27T08:31:35;8.63;;;5.60;;
29812;SDS011;16707;48.106;11.548;2022-11-27T08:34:02;7.80;;;5.18;;
29812;SDS011;16707;48.106;11.548;2022-11-27T08:36:32;8.52;;;5.63;;
29812;SDS011;16707;48.106;11.548;2022-11-27T08:38:59;8.40;;;5.88;;
29812;SDS011;16707;48.106;11.548;2022-11-27T08:41:30;10.35;;;6.75;;
29812;SDS011;16707;48.106;11.548;2022-11-27T08:43:57;6.45;;;5.18;;
29812;SDS011;16707;48.106;11.548;2022-11-27T08:46:28;7.50;;;6.05;;
29812;SDS011;16707;48.106;11.548;2022-11-27T08:48:55;8.93;;;6.03;;
29812;SDS011;16707;48.106;11.548;2022-11-27T08:51:27;10.07;;;5.65;;
29812;SDS011;16707;48.106;11.548;2022-11-27T08:53:54;7.93;;;5.65;;
29812;SDS011;16707;48.106;11.548;2022-11-27T08:56:23;8.88;;;5.55;;
29812;SDS011;16707;48.106;11.548;2022-11-27T08:58:51;6.65;;;5.40;;
29812;SDS011;16707;48.106;11.548;2022-11-27T09:01:18;6.20;;;5.22;;
29812;SDS011;16707;48.106;11.548;2022-11-27T09:03:48;8.93;;;5.53;;
29812;SDS011;16707;48.106;11.548;2022-11-27T09:06:17;8.77;;;5.60;;
29812;SDS011;16707;48.106;11.548;2022-11-27T09:08:51;8.98;;;5.88;;
29812;SDS011;16707;48.106;11.548;2022-11-27T09:11:20;8.68;;;5.85;;
29812;SDS011;16707;48.106;11.548;2022-11-27T09:13:50;9.07;;;5.63;;
29812;SDS011;16707;48.106;11.548;2022-11-27T09:16:18;9.50;;;6.22;;
29812;SDS011;16707;48.106;11.548;2022-11-27T09:18:48;7.45;;;5.13;;
29812;SDS011;16707;48.106;11.548;2022-11-27T09:21:18;8.40;;;6.00;;
29812;SDS011;16707;48.106;11.548;2022-11-27T09:23:46;11.57;;;5.95;;
29812;SDS011;16707;48.106;11.548;2022-11-27T09:26:17;12.75;;;6.60;;
29812;SDS011;16707;48.106;11.548;2022-11-27T09:28:49;9.07;;;6.55;;
29812;SDS011;16707;48.106;11.548;2022-11-27T09:31:16;9.30;;;5.60;;
29812;SDS011;16707;48.106;11.548;2022-11-27T09:33:46;8.15;;;5.63;;
29812;SDS011;16707;48.106;11.548;2022-11-27T09:36:16;9.55;;;6.18;;
29812;SDS011;16707;48.106;11.548;2022-11-27T09:38:46;7.55;;;5.10;;
29812;SDS011;16707;48.106;11.548;2022-11-27T09:41:17;6.93;;;4.50;;
29812;SDS011;16707;48.106;11.548;2022-11-27T09:49:36;6.45;;;4.43;;
29812;SDS011;16707;48.106;11.548;2022-11-27T09:52:13;5.38;;;4.43;;
29812;SDS011;16707;48.106;11.548;2022-11-27T09:54:47;5.13;;;4.20;;
29812;SDS011;16707;48.106;11.548;2022-11-27T09:57:22;4.38;;;3.92;;
29812;SDS011;16707;48.106;11.548;2022-11-27T09:59:53;5.55;;;3.80;;
29812;SDS011;16707;48.106;11.548;2022-11-27T10:02:23;6.82;;;4.32;;
29812;SDS011;16707;48.106;11.548;2022-11-27T10:04:52;5.78;;;4.13;;
29812;SDS011;16707;48.106;11.548;2022-11-27T10:07:24;6.82;;;4.57;;
29812;SDS011;16707;48.106;11.548;2022-11-27T10:10:02;5.88;;;3.83;;
29812;SDS011;16707;48.106;11.548;2022-11-27T10:12:42;5.38;;;4.70;;
29812;SDS011;16707;48.106;11.548;2022-11-27T10:15:18;6.28;;;4.20;;
29812;SDS011;16707;48.106;11.548;2022-11-27T10:17:54;6.73;;;4.23;;
29812;SDS011;16707;48.106;11.548;2022-11-27T10:20:26;6.57;;;4.60;;
29812;SDS011;16707;48.106;11.548;2022-11-27T10:23:08;9.93;;;5.53;;
29812;SDS011;16707;48.106;11.548;2022-11-27T10:25:44;7.03;;;5.10;;
29812;SDS011;16707;48.106;11.548;2022-11-27T10:28:15;6.97;;;5.35;;
29812;SDS011;16707;48.106;11.548;2022-11-27T10:30:57;8.57;;;5.35;;
29812;SDS011;16707;48.106;11.548;2022-11-27T10:33:30;7.75;;;5.35;;
29812;SDS011;16707;48.106;11.548;2022-11-27T10:36:03;6.45;;;4.43;;
29812;SDS011;16707;48.106;11.548;2022-11-27T10:38:37;7.03;;;4.43;;
29812;SDS011;16707;48.106;11.548;2022-11-27T10:41:07;9.52;;;5.38;;
29812;SDS011;16707;48.106;11.548;2022-11-27T10:43:40;6.38;;;4.40;;
29812;SDS011;16707;48.106;11.548;2022-11-27T10:46:09;6.15;;;5.00;;
29812;SDS011;16707;48.106;11.548;2022-11-27T10:48:40;7.18;;;4.70;;
29812;SDS011;16707;48.106;11.548;2022-11-27T10:51:11;6.40;;;4.30;;
29812;SDS011;16707;48.106;11.548;2022-11-27T10:53:42;5.20;;;4.13;;
29812;SDS011;16707;48.106;11.548;2022-11-27T10:56:20;7.03;;;4.30;;
29812;SDS011;16707;48.106;11.548;2022-11-27T10:59:11;5.70;;;4.15;;
29812;SDS011;16707;48.106;11.548;2022-11-27T11:01:44;8.45;;;5.03;;
29812;SDS011;16707;48.106;11.548;2022-11-27T11:04:12;4.95;;;4.43;;
29812;SDS011;16707;48.106;11.548;2022-11-27T11:06:41;6.65;;;4.18;;
29812;SDS011;16707;48.106;11.548;2022-11-27T11:09:13;4.85;;;3.83;;
29812;SDS011;16707;48.106;11.548;2022-11-27T11:11:43;6.32;;;4.30;;
29812;SDS011;16707;48.106;11.548;2022-11-27T11:14:14;5.88;;;3.80;;
29812;SDS011;16707;48.106;11.548;2022-11-27T11:16:46;4.97;;;3.80;;
29812;SDS011;16707;48.106;11.548;2022-11-27T11:19:22;6.68;;;4.50;;
29812;SDS011;16707;48.106;11.548;2022-11-27T11:21:50;5.78;;;4.00;;
29812;SDS011;16707;48.106;11.548;2022-11-27T11:24:21;4.85;;;3.53;;
29812;SDS011;16707;48.106;11.548;2022-11-27T11:26:52;6.72;;;3.78;;
29812;SDS011;16707;48.106;11.548;2022-11-27T11:29:30;4.97;;;3.63;;
29812;SDS011;16707;48.106;11.548;2022-11-27T11:32:07;5.15;;;3.78;;
29812;SDS011;16707;48.106;11.548;2022-11-27T11:34:40;4.97;;;4.47;;
29812;SDS011;16707;48.106;11.548;2022-11-27T11:37:17;6.13;;;3.90;;
29812;SDS011;16707;48.106;11.548;2022-11-27T11:39:53;5.90;;;4.18;;
29812;SDS011;16707;48.106;11.548;2022-11-27T11:44:52;5.07;;;3.65;;
29812;SDS011;16707;48.106;11.548;2022-11-27T11:47:27;5.03;;;3.40;;
29812;SDS011;16707;48.106;11.548;2022-11-27T11:49:54;6.57;;;3.75;;
29812;SDS011;16707;48.106;11.548;2022-11-27T11:52:31;6.05;;;4.20;;
29812;SDS011;16707;48.106;11.548;2022-11-27T11:55:13;6.05;;;4.03;;
29812;SDS011;16707;48.106;11.548;2022-11-27T11:57:56;6.85;;;3.78;;
29812;SDS011;16707;48.106;11.548;2022-11-27T12:00:36;5.65;;;3.97;;
29812;SDS011;16707;48.106;11.548;2022-11-27T12:03:13;5.28;;;3.08;;
29812;SDS011;16707;48.106;11.548;2022-11-27T12:05:56;4.18;;;3.33;;
29812;SDS011;16707;48.106;11.548;2022-11-27T12:08:37;4.65;;;3.28;;
29812;SDS011;16707;48.106;11.548;2022-11-27T12:11:18;6.22;;;3.53;;
29812;SDS011;16707;48.106;11.548;2022-11-27T12:14:01;4.20;;;3.63;;
29812;SDS011;16707;48.106;11.548;2022-11-27T12:16:44;5.20;;;3.90;;
29812;SDS011;16707;48.106;11.548;2022-11-27T12:22:24;4.07;;;3.58;;
29812;SDS011;16707;48.106;11.548;2022-11-27T12:25:08;6.03;;;4.40;;
29812;SDS011;16707;48.106;11.548;2022-11-27T12:27:50;6.22;;;4.40;;
29812;SDS011;16707;48.106;11.548;2022-11-27T12:30:28;5.80;;;4.55;;
29812;SDS011;16707;48.106;11.548;2022-11-27T12:33:07;5.95;;;4.65;;
29812;SDS011;16707;48.106;11.548;2022-11-27T12:35:51;5.75;;;4.55;;
29812;SDS011;16707;48.106;11.548;2022-11-27T12:38:31;7.72;;;4.90;;
29812;SDS011;16707;48.106;11.548;2022-11-27T12:44:11;7.18;;;5.00;;
29812;SDS011;16707;48.106;11.548;2022-11-27T12:46:52;7.53;;;5.03;;
29812;SDS011;16707;48.106;11.548;2022-11-27T12:49:24;7.45;;;5.15;;
29812;SDS011;16707;48.106;11.548;2022-11-27T12:52:00;7.50;;;5.15;;
29812;SDS011;16707;48.106;11.548;2022-11-27T12:54:38;7.22;;;5.18;;
29812;SDS011;16707;48.106;11.548;2022-11-27T12:57:12;8.30;;;5.35;;
29812;SDS011;16707;48.106;11.548;2022-11-27T12:59:47;8.73;;;5.63;;
29812;SDS011;16707;48.106;11.548;2022-11-27T13:02:29;6.05;;;4.63;;
29812;SDS011;16707;48.106;11.548;2022-11-27T13:05:01;7.57;;;5.13;;
29812;SDS011;16707;48.106;11.548;2022-11-27T13:07:33;8.18;;;5.70;;
29812;SDS011;16707;48.106;11.548;2022-11-27T13:10:10;7.90;;;5.70;;
29812;SDS011;16707;48.106;11.548;2022-11-27T13:12:46;9.63;;;6.18;;
29812;SDS011;16707;48.106;11.548;2022-11-27T13:15:22;10.47;;;6.27;;
29812;SDS011;16707;48.106;11.548;2022-11-27T13:17:53;9.52;;;6.28;;
29812;SDS011;16707;48.106;11.548;2022-11-27T13:22:57;7.85;;;6.13;;
29812;SDS011;16707;48.106;11.548;2022-11-27T13:25:24;10.63;;;6.30;;
29812;SDS011;16707;48.106;11.548;2022-11-27T13:27:53;10.98;;;6.00;;
29812;SDS011;16707;48.106;11.548;2022-11-27T13:30:23;11.65;;;6.72;;
29812;SDS011;16707;48.106;11.548;2022-11-27T13:32:53;9.75;;;7.13;;
29812;SDS011;16707;48.106;11.548;2022-11-27T13:35:24;10.60;;;6.80;;
29812;SDS011;16707;48.106;11.548;2022-11-27T13:38:05;11.32;;;7.30;;
29812;SDS011;16707;48.106;11.548;2022-11-27T13:40:37;12.43;;;7.97;;
29812;SDS011;16707;48.106;11.548;2022-11-27T13:43:18;9.48;;;6.55;;
29812;SDS011;16707;48.106;11.548;2022-11-27T13:46:01;9.30;;;7.20;;
29812;SDS011;16707;48.106;11.548;2022-11-27T13:48:33;10.35;;;6.75;;
29812;SDS011;16707;48.106;11.548;2022-11-27T13:51:05;11.60;;;7.20;;
29812;SDS011;16707;48.106;11.548;2022-11-27T13:53:34;8.80;;;6.28;;
29812;SDS011;16707;48.106;11.548;2022-11-27T13:56:03;11.57;;;7.38;;
29812;SDS011;16707;48.106;11.548;2022-11-27T13:58:33;10.70;;;7.47;;
29812;SDS011;16707;48.106;11.548;2022-11-27T14:01:13;13.20;;;8.48;;
29812;SDS011;16707;48.106;11.548;2022-11-27T14:03:44;9.43;;;6.45;;
29812;SDS011;16707;48.106;11.548;2022-11-27T14:06:16;12.63;;;7.18;;
29812;SDS011;16707;48.106;11.548;2022-11-27T14:08:51;10.27;;;7.35;;
29812;SDS011;16707;48.106;11.548;2022-11-27T14:11:27;11.75;;;7.35;;
29812;SDS011;16707;48.106;11.548;2022-11-27T14:13:56;10.00;;;7.23;;
29812;SDS011;16707;48.106;11.548;2022-11-27T14:16:27;12.30;;;7.68;;
29812;SDS011;16707;48.106;11.548;2022-11-27T14:18:58;14.88;;;7.85;;
29812;SDS011;16707;48.106;11.548;2022-11-27T14:21:29;10.73;;;7.20;;
29812;SDS011;16707;48.106;11.548;2022-11-27T14:26:51;11.82;;;6.60;;
29812;SDS011;16707;48.106;11.548;2022-11-27T14:29:19;12.00;;;7.88;;
29812;SDS011;16707;48.106;11.548;2022-11-27T14:31:58;12.75;;;8.65;;
29812;SDS011;16707;48.106;11.548;2022-11-27T14:34:30;10.55;;;7.43;;
29812;SDS011;16707;48.106;11.548;2022-11-27T14:36:59;14.13;;;8.18;;
29812;SDS011;16707;48.106;11.548;2022-11-27T14:39:27;13.40;;;8.70;;
29812;SDS011;16707;48.106;11.548;2022-11-27T14:41:59;15.15;;;9.05;;
29812;SDS011;16707;48.106;11.548;2022-11-27T14:44:28;12.75;;;8.05;;
29812;SDS011;16707;48.106;11.548;2022-11-27T14:46:55;15.07;;;8.77;;
29812;SDS011;16707;48.106;11.548;2022-11-27T14:49:27;14.75;;;9.32;;
29812;SDS011;16707;48.106;11.548;2022-11-27T14:51:56;12.15;;;8.75;;
29812;SDS011;16707;48.106;11.548;2022-11-27T14:54:27;12.70;;;8.10;;
29812;SDS011;16707;48.106;11.548;2022-11-27T14:56:57;12.50;;;7.45;;
29812;SDS011;16707;48.106;11.548;2022-11-27T14:59:27;13.35;;;8.45;;
29812;SDS011;16707;48.106;11.548;2022-11-27T15:02:00;12.65;;;8.35;;
29812;SDS011;16707;48.106;11.548;2022-11-27T15:04:32;13.13;;;7.53;;
29812;SDS011;16707;48.106;11.548;2022-11-27T15:07:00;15.85;;;9.52;;
29812;SDS011;16707;48.106;11.548;2022-11-27T15:09:33;14.48;;;9.02;;
29812;SDS011;16707;48.106;11.548;2022-11-27T15:12:02;19.85;;;12.20;;
29812;SDS011;16707;48.106;11.548;2022-11-27T15:14:43;16.75;;;9.75;;
29812;SDS011;16707;48.106;11.548;2022-11-27T15:17:15;14.38;;;9.50;;
29812;SDS011;16707;48.106;11.548;2022-11-27T15:19:45;14.43;;;9.07;;
29812;SDS011;16707;48.106;11.548;2022-11-27T15:22:15;15.82;;;9.88;;